createdAt,value
2018-08-30T00:02:14.789Z,3.60
2018-08-30T00:04:46.917Z,3.87
2018-08-30T00:07:19.077Z,3.90
2018-08-30T00:09:51.147Z,3.70
2018-08-30T00:12:23.228Z,4.40
2018-08-30T00:14:55.319Z,4.40
2018-08-30T00:17:27.367Z,3.80
2018-08-30T00:19:59.506Z,4.60
2018-08-30T00:22:31.626Z,4.10
2018-08-30T00:25:03.751Z,4.13
2018-08-30T00:27:35.831Z,4.63
2018-08-30T00:30:08.015Z,4.03
2018-08-30T00:32:40.051Z,4.23
2018-08-30T00:35:12.228Z,4.50
2018-08-30T00:37:44.452Z,4.37
2018-08-30T00:40:16.568Z,4.20
2018-08-30T00:42:48.674Z,3.63
2018-08-30T00:45:20.846Z,4.03
2018-08-30T00:47:52.943Z,4.40
2018-08-30T00:50:25.031Z,3.90
2018-08-30T00:52:57.148Z,3.73
2018-08-30T00:55:29.205Z,4.03
2018-08-30T00:58:01.287Z,4.47
2018-08-30T01:00:33.364Z,4.00
2018-08-30T01:03:05.460Z,4.20
2018-08-30T01:05:37.594Z,4.20
2018-08-30T01:08:09.667Z,4.40
2018-08-30T01:10:41.776Z,4.23
2018-08-30T01:13:13.870Z,4.43
2018-08-30T01:15:45.982Z,4.00
2018-08-30T01:18:20.228Z,4.33
2018-08-30T01:20:52.378Z,4.33
2018-08-30T01:23:24.466Z,4.30
2018-08-30T01:25:56.609Z,3.70
2018-08-30T01:28:28.792Z,5.10
2018-08-30T01:31:01.165Z,4.07
2018-08-30T01:33:33.213Z,4.50
2018-08-30T01:36:07.507Z,4.80
2018-08-30T01:38:39.720Z,3.80
2018-08-30T01:41:11.822Z,4.60
2018-08-30T01:43:43.874Z,3.87
2018-08-30T01:46:16.001Z,4.20
2018-08-30T01:48:48.066Z,4.83
2018-08-30T01:51:20.311Z,4.00
2018-08-30T01:53:52.549Z,4.10
2018-08-30T01:56:24.752Z,3.87
2018-08-30T01:58:56.888Z,4.07
2018-08-30T02:01:29.301Z,4.27
2018-08-30T02:04:01.576Z,4.60
2018-08-30T02:06:33.789Z,4.20
2018-08-30T02:09:06.000Z,5.00
2018-08-30T02:11:38.207Z,4.20
2018-08-30T02:14:10.452Z,4.70
2018-08-30T02:16:42.650Z,4.30
2018-08-30T02:19:14.778Z,4.50
2018-08-30T02:21:46.959Z,5.50
2018-08-30T02:24:19.279Z,4.40
2018-08-30T02:26:51.513Z,5.27
2018-08-30T02:29:23.786Z,5.93
2018-08-30T02:31:55.942Z,5.30
2018-08-30T02:34:28.044Z,5.10
2018-08-30T02:37:00.187Z,5.37
2018-08-30T02:39:32.311Z,4.67
2018-08-30T02:42:04.520Z,5.17
2018-08-30T02:44:36.637Z,5.17
2018-08-30T02:47:08.719Z,4.90
2018-08-30T02:49:41.547Z,5.03
2018-08-30T02:52:13.680Z,5.70
2018-08-30T02:54:45.773Z,5.57
2018-08-30T02:57:17.959Z,5.03
2018-08-30T02:59:50.079Z,5.50
2018-08-30T03:02:22.210Z,6.20
2018-08-30T03:04:54.328Z,5.40
2018-08-30T03:07:26.473Z,5.10
2018-08-30T03:09:58.565Z,6.47
2018-08-30T03:12:30.739Z,5.63
2018-08-30T03:15:08.469Z,6.10
2018-08-30T03:17:40.575Z,5.90
2018-08-30T03:20:13.829Z,5.93
2018-08-30T03:22:46.064Z,5.47
2018-08-30T03:25:18.197Z,6.17
2018-08-30T03:27:50.299Z,5.20
2018-08-30T03:30:22.473Z,5.70
2018-08-30T03:32:54.542Z,5.80
2018-08-30T03:35:26.620Z,5.97
2018-08-30T03:37:58.795Z,6.23
2018-08-30T03:40:31.045Z,5.43
2018-08-30T03:43:03.809Z,6.13
2018-08-30T03:45:35.953Z,5.07
2018-08-30T03:48:08.086Z,5.60
2018-08-30T03:50:40.563Z,6.30
2018-08-30T03:53:12.662Z,5.13
2018-08-30T03:55:44.818Z,4.80
2018-08-30T03:58:16.923Z,5.60
2018-08-30T04:00:49.005Z,5.03
2018-08-30T04:03:21.176Z,5.53
2018-08-30T04:05:53.275Z,4.60
2018-08-30T04:08:25.383Z,5.00
2018-08-30T04:10:57.543Z,4.33
2018-08-30T04:13:29.696Z,5.27
2018-08-30T04:16:01.729Z,5.73
2018-08-30T04:18:33.911Z,5.27
2018-08-30T04:21:05.995Z,4.53
2018-08-30T04:23:38.096Z,5.27
2018-08-30T04:26:10.174Z,4.87
2018-08-30T04:28:42.284Z,4.70
2018-08-30T04:31:14.367Z,5.13
2018-08-30T04:33:46.415Z,4.70
2018-08-30T04:36:18.491Z,4.97
2018-08-30T04:38:50.561Z,5.17
2018-08-30T04:41:23.202Z,5.27
2018-08-30T04:43:55.311Z,4.50
2018-08-30T04:46:27.475Z,4.03
2018-08-30T04:48:59.623Z,4.03
2018-08-30T04:51:31.710Z,3.80
2018-08-30T04:54:04.502Z,3.57
2018-08-30T04:56:36.575Z,2.80
2018-08-30T04:59:08.666Z,3.00
2018-08-30T05:01:40.825Z,2.80
2018-08-30T05:04:12.883Z,2.87
2018-08-30T05:06:44.997Z,2.87
2018-08-30T05:09:17.090Z,3.17
2018-08-30T05:11:49.237Z,2.93
2018-08-30T05:14:21.338Z,3.63
2018-08-30T05:16:53.423Z,2.90
2018-08-30T05:19:25.504Z,2.83
2018-08-30T05:21:57.604Z,3.10
2018-08-30T05:24:29.732Z,3.10
2018-08-30T05:27:02.003Z,2.97
2018-08-30T05:29:34.100Z,2.93
2018-08-30T05:32:06.188Z,2.90
2018-08-30T05:34:38.228Z,2.90
2018-08-30T05:37:10.379Z,2.57
2018-08-30T05:39:42.465Z,3.40
2018-08-30T05:42:14.527Z,3.00
2018-08-30T05:44:46.745Z,2.90
2018-08-30T05:47:18.783Z,2.93
2018-08-30T05:49:50.868Z,2.73
2018-08-30T05:52:22.994Z,3.50
2018-08-30T05:54:55.126Z,2.80
2018-08-30T05:57:27.197Z,2.50
2018-08-30T05:59:59.516Z,2.80
2018-08-30T06:02:31.627Z,2.97
2018-08-30T06:05:03.790Z,3.10
2018-08-30T06:07:35.924Z,3.30
2018-08-30T06:10:08.087Z,3.10
2018-08-30T06:12:40.167Z,4.23
2018-08-30T06:15:12.319Z,3.20
2018-08-30T06:17:44.446Z,3.20
2018-08-30T06:20:16.541Z,3.40
2018-08-30T06:22:48.958Z,2.77
2018-08-30T06:25:21.533Z,2.73
2018-08-30T06:27:53.735Z,3.00
2018-08-30T06:30:26.969Z,3.30
2018-08-30T06:32:59.138Z,3.63
2018-08-30T06:35:31.296Z,3.33
2018-08-30T06:38:03.395Z,3.37
2018-08-30T06:40:35.535Z,3.53
2018-08-30T06:43:07.687Z,3.93
2018-08-30T06:45:39.807Z,3.23
2018-08-30T06:48:11.969Z,3.40
2018-08-30T06:50:44.329Z,4.43
2018-08-30T06:53:16.470Z,4.43
2018-08-30T06:55:48.639Z,3.50
2018-08-30T06:58:20.746Z,4.67
2018-08-30T07:00:52.872Z,5.90
2018-08-30T07:03:24.958Z,5.30
2018-08-30T07:05:57.044Z,5.50
2018-08-30T07:08:29.253Z,5.80
2018-08-30T07:11:01.441Z,4.80
2018-08-30T07:13:33.485Z,5.73
2018-08-30T07:16:06.954Z,6.40
2018-08-30T07:18:39.096Z,6.83
2018-08-30T07:21:11.249Z,6.60
2018-08-30T07:23:43.431Z,6.10
2018-08-30T07:29:13.632Z,6.60
2018-08-30T07:31:46.691Z,7.90
2018-08-30T07:34:18.900Z,7.67
2018-08-30T07:36:50.853Z,9.27
2018-08-30T07:39:22.923Z,7.37
2018-08-30T07:41:54.976Z,7.90
2018-08-30T07:44:27.164Z,7.07
2018-08-30T07:46:59.152Z,8.63
2018-08-30T07:49:34.719Z,8.80
2018-08-30T07:52:06.896Z,8.47
2018-08-30T07:54:39.168Z,7.67
2018-08-30T07:57:11.264Z,6.70
2018-08-30T07:59:43.441Z,8.80
2018-08-30T08:02:15.647Z,8.90
2018-08-30T08:04:47.767Z,7.90
2018-08-30T08:07:20.601Z,7.73
2018-08-30T08:09:52.665Z,7.43
2018-08-30T08:12:24.908Z,8.10
2018-08-30T08:14:57.093Z,8.27
2018-08-30T08:17:29.335Z,8.10
2018-08-30T08:20:01.409Z,8.10
2018-08-30T08:22:33.598Z,8.07
2018-08-30T08:25:05.821Z,8.10
2018-08-30T08:27:37.893Z,7.60
2018-08-30T08:30:10.100Z,9.00
2018-08-30T08:32:42.308Z,8.37
2018-08-30T08:35:14.405Z,8.77
2018-08-30T08:37:46.558Z,8.40
2018-08-30T08:40:18.644Z,8.30
2018-08-30T08:42:50.817Z,8.67
2018-08-30T08:45:22.954Z,8.63
2018-08-30T08:47:55.064Z,9.40
2018-08-30T08:50:27.251Z,7.77
2018-08-30T08:52:59.300Z,8.20
2018-08-30T08:55:31.368Z,7.33
2018-08-30T08:58:03.607Z,7.40
2018-08-30T09:00:35.708Z,7.17
2018-08-30T09:03:07.903Z,8.87
2018-08-30T09:05:40.042Z,7.97
2018-08-30T09:08:12.119Z,8.00
2018-08-30T09:10:44.183Z,8.50
2018-08-30T09:13:16.360Z,7.40
2018-08-30T09:15:48.529Z,7.83
2018-08-30T09:18:20.681Z,8.80
2018-08-30T09:20:52.792Z,7.93
2018-08-30T09:23:25.002Z,9.00
2018-08-30T09:25:57.068Z,7.20
2018-08-30T09:28:29.151Z,7.50
2018-08-30T09:31:01.364Z,7.43
2018-08-30T09:33:33.425Z,6.73
2018-08-30T09:36:05.745Z,6.47
2018-08-30T09:38:37.796Z,6.60
2018-08-30T09:41:09.852Z,6.20
2018-08-30T09:50:46.079Z,6.67
2018-08-30T09:53:18.351Z,6.73
2018-08-30T09:55:50.627Z,6.33
2018-08-30T09:58:22.700Z,6.30
2018-08-30T10:01:00.714Z,6.03
2018-08-30T10:03:32.929Z,6.60
2018-08-30T10:06:05.090Z,6.80
2018-08-30T10:08:37.216Z,6.33
2018-08-30T10:11:09.414Z,7.57
2018-08-30T10:13:41.569Z,6.20
2018-08-30T10:16:13.791Z,6.83
2018-08-30T10:18:45.873Z,6.20
2018-08-30T10:21:18.095Z,5.93
2018-08-30T10:23:52.546Z,6.43
2018-08-30T10:26:24.705Z,6.70
2018-08-30T10:28:56.821Z,6.23
2018-08-30T10:31:29.106Z,6.30
2018-08-30T10:34:02.221Z,6.30
2018-08-30T10:36:34.419Z,5.90
2018-08-30T10:39:08.157Z,5.87
2018-08-30T10:41:40.266Z,7.27
2018-08-30T10:44:12.450Z,6.57
2018-08-30T10:46:44.544Z,5.57
2018-08-30T10:49:16.747Z,5.70
2018-08-30T10:51:48.936Z,5.60
2018-08-30T10:54:21.114Z,5.40
2018-08-30T10:56:53.291Z,4.90
2018-08-30T10:59:25.470Z,5.67
2018-08-30T11:01:57.608Z,5.20
2018-08-30T11:04:31.760Z,4.47
2018-08-30T11:07:03.998Z,4.77
2018-08-30T11:09:36.123Z,5.03
2018-08-30T11:12:08.626Z,4.77
2018-08-30T11:14:40.686Z,4.93
2018-08-30T11:17:12.805Z,5.03
2018-08-30T11:19:44.953Z,3.50
2018-08-30T11:22:17.057Z,3.40
2018-08-30T11:24:49.157Z,3.50
2018-08-30T11:27:21.323Z,3.97
2018-08-30T11:29:53.519Z,3.70
2018-08-30T11:32:25.609Z,3.50
2018-08-30T11:34:57.754Z,3.40
2018-08-30T11:37:29.945Z,3.40
2018-08-30T11:40:02.064Z,2.70
2018-08-30T11:42:34.189Z,2.67
2018-08-30T11:45:06.954Z,2.33
2018-08-30T11:47:45.545Z,2.27
2018-08-30T11:50:17.631Z,2.10
2018-08-30T11:52:49.793Z,2.10
2018-08-30T11:55:21.953Z,2.40
2018-08-30T11:57:54.137Z,2.00
2018-08-30T12:00:26.393Z,2.20
2018-08-30T12:02:59.275Z,2.50
2018-08-30T12:05:31.756Z,2.30
2018-08-30T12:08:05.096Z,2.27
2018-08-30T12:10:37.983Z,2.50
2018-08-30T12:13:10.109Z,2.53
2018-08-30T12:15:42.235Z,2.07
2018-08-30T12:18:14.459Z,2.20
2018-08-30T12:20:46.888Z,2.10
2018-08-30T12:23:18.840Z,2.97
2018-08-30T12:25:51.548Z,2.60
2018-08-30T12:28:23.654Z,2.00
2018-08-30T12:30:55.835Z,2.40
2018-08-30T12:33:27.963Z,2.23
2018-08-30T12:36:00.180Z,2.67
2018-08-30T12:38:32.154Z,2.50
2018-08-30T12:41:04.319Z,3.30
2018-08-30T12:43:36.524Z,2.80
2018-08-30T12:46:08.513Z,2.80
2018-08-30T12:48:40.690Z,3.10
2018-08-30T12:51:13.016Z,2.73
2018-08-30T12:53:45.008Z,2.87
2018-08-30T12:56:17.118Z,3.20
2018-08-30T12:58:53.753Z,2.80
2018-08-30T13:01:25.834Z,2.60
2018-08-30T13:03:58.093Z,2.00
2018-08-30T13:06:30.093Z,2.70
2018-08-30T13:09:02.613Z,3.00
2018-08-30T13:11:34.415Z,2.47
2018-08-30T13:14:06.587Z,2.73
2018-08-30T13:16:38.590Z,2.40
2018-08-30T13:19:10.881Z,2.50
2018-08-30T13:21:42.935Z,2.40
2018-08-30T13:24:15.206Z,2.30
2018-08-30T13:26:47.295Z,2.13
2018-08-30T13:29:19.441Z,2.50
2018-08-30T13:31:51.732Z,2.43
2018-08-30T13:34:24.011Z,2.13
2018-08-30T13:36:56.029Z,2.27
2018-08-30T13:39:28.224Z,2.40
2018-08-30T13:42:00.276Z,2.37
2018-08-30T13:44:32.231Z,1.73
2018-08-30T13:47:04.424Z,1.70
2018-08-30T13:49:36.219Z,1.83
2018-08-30T13:52:08.574Z,2.13
2018-08-30T13:54:40.561Z,2.03
2018-08-30T13:57:12.793Z,1.97
2018-08-30T13:59:45.093Z,2.53
2018-08-30T14:02:16.948Z,2.03
2018-08-30T14:04:49.303Z,2.37
2018-08-30T14:07:21.464Z,2.13
2018-08-30T14:09:53.555Z,2.07
2018-08-30T14:12:25.678Z,2.30
2018-08-30T14:14:57.805Z,2.63
2018-08-30T14:17:29.770Z,2.93
2018-08-30T14:20:01.855Z,2.87
2018-08-30T14:22:34.049Z,2.77
2018-08-30T14:25:06.115Z,2.47
2018-08-30T14:27:38.239Z,2.70
2018-08-30T14:30:10.391Z,3.10
2018-08-30T14:32:42.479Z,3.03
2018-08-30T14:35:14.678Z,3.77
2018-08-30T14:37:46.848Z,3.60
2018-08-30T14:40:18.929Z,3.20
2018-08-30T14:42:50.987Z,3.20
2018-08-30T14:45:23.049Z,3.30
2018-08-30T14:47:55.169Z,3.57
2018-08-30T14:50:27.236Z,3.53
2018-08-30T14:52:59.316Z,3.27
2018-08-30T14:55:31.489Z,3.50
2018-08-30T14:58:03.682Z,4.13
2018-08-30T15:00:35.809Z,3.50
2018-08-30T15:03:08.069Z,3.60
2018-08-30T15:05:40.323Z,3.63
2018-08-30T15:08:12.299Z,3.80
2018-08-30T15:10:44.363Z,4.10
2018-08-30T15:13:16.429Z,3.80
2018-08-30T15:15:48.640Z,4.20
2018-08-30T15:18:20.872Z,4.27
2018-08-30T15:20:53.042Z,4.43
2018-08-30T15:23:25.277Z,4.87
2018-08-30T15:25:57.193Z,4.10
2018-08-30T15:28:29.386Z,4.73
2018-08-30T15:31:01.558Z,4.07
2018-08-30T15:33:33.745Z,4.43
2018-08-30T15:36:05.945Z,4.43
2018-08-30T15:38:38.044Z,4.77
2018-08-30T15:41:10.672Z,4.60
2018-08-30T15:43:42.809Z,4.20
2018-08-30T15:46:14.884Z,4.90
2018-08-30T15:48:47.200Z,4.30
2018-08-30T15:51:19.076Z,4.43
2018-08-30T15:53:51.143Z,4.73
2018-08-30T15:56:23.236Z,4.03
2018-08-30T15:58:55.343Z,4.00
2018-08-30T16:01:27.555Z,4.37
2018-08-30T16:03:59.607Z,4.10
2018-08-30T16:06:31.692Z,3.90
2018-08-30T16:09:06.362Z,4.10
2018-08-30T16:11:38.495Z,4.10
2018-08-30T16:14:10.635Z,3.97
2018-08-30T16:16:42.772Z,4.00
2018-08-30T16:19:14.918Z,4.13
2018-08-30T16:21:47.040Z,4.37
2018-08-30T16:24:19.162Z,4.67
2018-08-30T16:26:51.200Z,5.20
2018-08-30T16:29:23.518Z,4.20
2018-08-30T16:31:55.460Z,4.60
2018-08-30T16:34:27.750Z,5.27
2018-08-30T16:36:59.900Z,5.47
2018-08-30T16:39:31.979Z,4.50
2018-08-30T16:42:04.135Z,4.50
2018-08-30T16:44:36.238Z,5.43
2018-08-30T16:47:08.401Z,4.80
2018-08-30T16:49:41.460Z,4.83
2018-08-30T16:52:13.600Z,5.40
2018-08-30T16:54:45.695Z,5.90
2018-08-30T16:57:17.923Z,6.20
2018-08-30T16:59:49.976Z,5.70
2018-08-30T17:02:22.241Z,5.77
2018-08-30T17:04:54.210Z,5.83
2018-08-30T17:07:26.359Z,6.57
2018-08-30T17:09:58.533Z,5.43
2018-08-30T17:12:30.707Z,6.70
2018-08-30T17:15:03.423Z,6.13
2018-08-30T17:17:36.554Z,6.70
2018-08-30T17:20:11.676Z,7.10
2018-08-30T17:22:43.856Z,6.90
2018-08-30T17:25:15.966Z,6.40
2018-08-30T17:27:48.032Z,6.80
2018-08-30T17:30:20.172Z,7.00
2018-08-30T17:32:52.320Z,7.17
2018-08-30T17:35:24.812Z,7.33
2018-08-30T17:37:56.954Z,6.87
2018-08-30T17:40:29.107Z,7.40
2018-08-30T17:43:01.285Z,7.10
2018-08-30T17:45:33.564Z,7.67
2018-08-30T17:48:05.678Z,7.60
2018-08-30T17:50:38.851Z,6.93
2018-08-30T17:53:10.943Z,6.30
2018-08-30T17:55:43.215Z,7.00
2018-08-30T17:58:15.773Z,7.57
2018-08-30T18:00:47.920Z,7.27
2018-08-30T18:03:20.046Z,6.60
2018-08-30T18:05:52.143Z,6.63
2018-08-30T18:08:24.245Z,8.63
2018-08-30T18:10:56.364Z,7.40
2018-08-30T18:13:28.399Z,8.60
2018-08-30T18:16:00.539Z,7.90
2018-08-30T18:18:32.727Z,7.13
2018-08-30T18:21:04.812Z,6.80
2018-08-30T18:23:36.926Z,6.67
2018-08-30T18:26:09.059Z,6.63
2018-08-30T18:28:41.137Z,7.53
2018-08-30T18:31:13.250Z,7.13
2018-08-30T18:33:45.360Z,7.43
2018-08-30T18:36:17.420Z,7.80
2018-08-30T18:38:49.512Z,8.07
2018-08-30T18:41:21.642Z,8.30
2018-08-30T18:43:53.776Z,9.00
2018-08-30T18:46:25.932Z,9.70
2018-08-30T18:48:57.987Z,8.77
2018-08-30T18:51:30.349Z,9.87
2018-08-30T18:54:02.532Z,9.63
2018-08-30T18:56:34.625Z,8.17
2018-08-30T18:59:06.711Z,8.13
2018-08-30T19:01:38.789Z,9.60
2018-08-30T19:04:10.837Z,8.93
2018-08-30T19:06:42.910Z,9.13
2018-08-30T19:09:14.982Z,9.10
2018-08-30T19:11:47.053Z,9.53
2018-08-30T19:14:21.432Z,8.20
2018-08-30T19:16:59.093Z,9.77
2018-08-30T19:19:33.419Z,9.70
2018-08-30T19:22:05.527Z,9.60
2018-08-30T19:24:43.336Z,7.70
2018-08-30T19:27:15.444Z,9.27
2018-08-30T19:29:53.254Z,9.47
2018-08-30T19:32:25.394Z,9.67
2018-08-30T19:35:02.055Z,9.03
2018-08-30T19:37:34.177Z,10.63
2018-08-30T19:40:10.111Z,11.50
2018-08-30T19:42:42.326Z,8.97
2018-08-30T19:45:14.400Z,9.40
2018-08-30T19:47:46.476Z,10.87
2018-08-30T19:50:18.555Z,10.67
2018-08-30T19:52:50.623Z,10.50
2018-08-30T19:55:22.725Z,10.40
2018-08-30T19:57:54.981Z,11.07
2018-08-30T20:00:27.141Z,10.00
2018-08-30T20:02:59.176Z,10.20
2018-08-30T20:05:31.251Z,9.13
2018-08-30T20:08:03.599Z,9.00
2018-08-30T20:10:35.713Z,9.90
2018-08-30T20:13:07.804Z,10.10
2018-08-30T20:15:39.964Z,9.53
2018-08-30T20:18:12.179Z,9.83
2018-08-30T20:20:44.356Z,10.27
2018-08-30T20:23:16.488Z,9.00
2018-08-30T20:25:48.591Z,8.90
2018-08-30T20:28:20.708Z,8.43
2018-08-30T20:30:52.790Z,10.13
2018-08-30T20:33:24.808Z,8.70
2018-08-30T20:35:56.843Z,9.50
2018-08-30T20:38:28.924Z,8.60
2018-08-30T20:41:01.018Z,9.03
2018-08-30T20:43:33.030Z,9.43
2018-08-30T20:46:05.133Z,9.70
2018-08-30T20:48:38.000Z,9.40
2018-08-30T20:51:10.064Z,9.20
2018-08-30T20:53:42.125Z,8.17
2018-08-30T20:56:14.232Z,8.93
2018-08-30T20:58:46.339Z,8.93
2018-08-30T21:01:18.399Z,9.00
2018-08-30T21:03:50.494Z,8.47
2018-08-30T21:06:22.650Z,8.63
2018-08-30T21:08:54.715Z,8.53
2018-08-30T21:11:26.780Z,9.10
2018-08-30T21:13:58.876Z,8.97
2018-08-30T21:16:31.007Z,9.23
2018-08-30T21:19:03.039Z,10.03
2018-08-30T21:21:35.106Z,9.77
2018-08-30T21:24:07.151Z,9.43
2018-08-30T21:26:39.242Z,8.53
2018-08-30T21:29:11.390Z,9.83
2018-08-30T21:31:43.470Z,8.70
2018-08-30T21:34:15.600Z,9.00
2018-08-30T21:36:47.652Z,9.10
2018-08-30T21:39:19.754Z,9.67
2018-08-30T21:41:51.875Z,10.20
2018-08-30T21:44:23.967Z,9.87
2018-08-30T21:46:56.063Z,9.37
2018-08-30T21:49:28.158Z,10.00
2018-08-30T21:52:00.283Z,9.10
2018-08-30T21:54:32.334Z,9.37
2018-08-30T21:57:04.430Z,8.93
2018-08-30T21:59:36.460Z,10.20
2018-08-30T22:02:08.521Z,10.37
2018-08-30T22:04:40.609Z,10.30
2018-08-30T22:07:12.724Z,9.00
2018-08-30T22:09:44.791Z,8.97
2018-08-30T22:12:16.852Z,10.10
2018-08-30T22:14:48.912Z,9.47
2018-08-30T22:17:20.979Z,10.27
2018-08-30T22:19:53.062Z,10.20
2018-08-30T22:22:25.167Z,10.10
2018-08-30T22:24:57.235Z,9.87
2018-08-30T22:27:29.382Z,9.30
2018-08-30T22:30:01.486Z,9.97
2018-08-30T22:32:33.571Z,10.23
2018-08-30T22:35:06.055Z,9.47
2018-08-30T22:37:38.141Z,9.43
2018-08-30T22:40:10.248Z,10.70
2018-08-30T22:42:42.296Z,10.07
2018-08-30T22:45:14.392Z,10.80
2018-08-30T22:47:46.500Z,11.20
2018-08-30T22:50:18.546Z,11.37
2018-08-30T22:52:50.636Z,10.00
2018-08-30T22:55:22.689Z,10.83
2018-08-30T22:57:54.855Z,10.50
2018-08-30T23:00:27.020Z,10.13
2018-08-30T23:02:59.120Z,11.27
2018-08-30T23:05:31.257Z,10.70
2018-08-30T23:08:03.432Z,11.17
2018-08-30T23:10:36.087Z,12.17
2018-08-30T23:13:08.179Z,11.10
2018-08-30T23:15:40.243Z,10.77
2018-08-30T23:18:12.387Z,11.30
2018-08-30T23:20:44.523Z,11.50
2018-08-30T23:23:16.636Z,10.90
2018-08-30T23:25:48.763Z,10.40
2018-08-30T23:28:20.827Z,10.30
2018-08-30T23:30:52.836Z,10.93
2018-08-30T23:33:24.879Z,10.50
2018-08-30T23:35:56.944Z,12.33
2018-08-30T23:38:29.051Z,11.83
2018-08-30T23:41:01.121Z,10.83
2018-08-30T23:43:33.156Z,10.70
2018-08-30T23:46:05.212Z,9.63
2018-08-30T23:48:37.264Z,10.33
2018-08-30T23:51:09.286Z,12.07
2018-08-30T23:53:41.321Z,10.43
2018-08-30T23:56:13.426Z,10.57
2018-08-30T23:58:56.965Z,10.60
